Time;durP1;ratioP1;P1;durP2;ratioP2;P2;SDS_P1;SDS_P2;PMS_P1;PMS_P2;Temp;Humidity;BMP_temperature;BMP_pressure;BME280_temperature;BME280_humidity;BME280_pressure;Samples;Min_cycle;Max_cycle;Signal;HPM_P1;HPM_P2
2023/07/29 00:00:48;;;;;;;;;;;;;;;25.27;38.74;99282.00;5055114;28;19912;-78
2023/07/29 00:03:14;;;;;;;;;;;;;;;25.26;39.31;99277.63;5036958;28;19974;-78
2023/07/29 00:05:39;;;;;;;;;;;;;;;25.26;38.01;99274.94;5055278;28;19916;-77
2023/07/29 00:08:04;;;;;;;;;;;;;;;25.23;38.14;99275.50;5055157;28;19938;-78
2023/07/29 00:10:35;;;;;;;;;;;;;;;25.21;39.35;99273.06;5054922;28;20451;-78
2023/07/29 00:13:00;;;;;;;;;;;;;;;25.15;38.41;99274.19;5054868;28;19909;-78
2023/07/29 00:15:25;;;;;;;;;;;;;;;25.06;38.79;99289.38;5054953;28;20403;-77
2023/07/29 00:17:51;;;;;;;;;;;;;;;24.97;37.74;99291.03;5037335;28;19915;-77
2023/07/29 00:20:16;;;;;;;;;;;;;;;24.98;37.64;99287.28;5055209;28;19915;-77
2023/07/29 00:22:41;;;;;;;;;;;;;;;24.97;37.24;99283.75;5067676;28;20369;-78
2023/07/29 00:25:06;;;;;;;;;;;;;;;24.98;37.09;99281.88;5055057;28;19908;-78
2023/07/29 00:27:32;;;;;;;;;;;;;;;24.94;37.64;99287.00;5054986;28;19908;-78
2023/07/29 00:29:57;;;;;;;;;;;;;;;24.94;37.73;99281.59;5055284;28;19924;-78
2023/07/29 00:32:22;;;;;;;;;;;;;;;24.92;37.26;99286.47;5054779;28;19909;-78
2023/07/29 00:34:47;;;;;;;;;;;;;;;24.88;37.46;99279.19;5054565;28;19920;-78
2023/07/29 00:37:13;;;;;;;;;;;;;;;24.84;37.20;99280.84;5054540;28;20003;-78
2023/07/29 00:39:38;;;;;;;;;;;;;;;24.85;37.34;99293.25;5054450;28;19913;-79
2023/07/29 00:42:04;;;;;;;;;;;;;;;24.85;37.86;99282.44;5054352;28;19915;-78
2023/07/29 00:44:31;;;;;;;;;;;;;;;24.80;37.19;99271.66;5054253;28;20440;-79
2023/07/29 00:46:57;;;;;;;;;;;;;;;24.77;37.18;99266.81;5036402;28;20394;-78
2023/07/29 00:49:22;;;;;;;;;;;;;;;24.76;37.57;99271.41;5054375;28;19952;-79
2023/07/29 00:51:47;;;;;;;;;;;;;;;24.75;38.20;99258.19;5054334;28;19913;-77
2023/07/29 00:54:13;;;;;;;;;;;;;;;24.73;37.73;99254.97;5054074;28;19915;-77
2023/07/29 00:56:38;;;;;;;;;;;;;;;24.69;37.67;99258.22;5054222;28;20015;-77
2023/07/29 00:59:04;;;;;;;;;;;;;;;24.65;39.27;99257.16;5035361;28;19916;-78
2023/07/29 01:01:29;;;;;;;;;;;;;;;24.60;38.73;99261.78;5035995;28;19967;-78
2023/07/29 01:03:54;;;;;;;;;;;;;;;24.58;38.12;99263.94;5035872;28;19905;-77
2023/07/29 01:06:34;;;;;;;;;;;;;;;24.58;37.28;99264.75;5053901;28;20370;-76
2023/07/29 01:09:04;;;;;;;;;;;;;;;24.60;38.27;99259.88;5053795;28;19992;-77
2023/07/29 01:11:41;;;;;;;;;;;;;;;24.61;38.30;99258.00;5053598;28;19912;-77
2023/07/29 01:14:09;;;;;;;;;;;;;;;24.64;38.19;99254.75;5053719;28;19912;-77
2023/07/29 01:16:40;;;;;;;;;;;;;;;24.60;37.54;99254.50;5053916;28;20013;-77
2023/07/29 01:19:09;;;;;;;;;;;;;;;24.47;39.19;99262.34;5036043;28;19908;-78
2023/07/29 01:21:35;;;;;;;;;;;;;;;24.35;38.53;99271.56;5053684;28;19909;-79
2023/07/29 01:24:00;;;;;;;;;;;;;;;24.22;39.44;99258.63;5053524;28;19915;-78
2023/07/29 01:26:28;;;;;;;;;;;;;;;24.02;40.45;99264.88;5053467;28;19909;-79
2023/07/29 01:28:53;;;;;;;;;;;;;;;23.86;41.31;99267.88;5035573;28;19915;-77
2023/07/29 01:31:25;;;;;;;;;;;;;;;23.79;42.38;99270.03;5053794;28;20368;-77
2023/07/29 01:33:55;;;;;;;;;;;;;;;23.66;41.53;99266.78;5053629;28;19908;-78
2023/07/29 01:36:23;;;;;;;;;;;;;;;23.57;42.01;99273.78;5035287;28;19917;-78
2023/07/29 01:38:49;;;;;;;;;;;;;;;23.41;41.44;99272.13;5053284;28;19916;-77
2023/07/29 01:41:16;;;;;;;;;;;;;;;23.31;42.11;99270.22;5053361;28;19944;-78
2023/07/29 01:43:43;;;;;;;;;;;;;;;23.17;41.21;99271.84;5053242;28;20404;-78
2023/07/29 01:46:10;;;;;;;;;;;;;;;23.05;41.77;99273.97;5053182;28;20003;-78
2023/07/29 01:48:35;;;;;;;;;;;;;;;22.96;42.37;99279.03;5053272;28;19916;-79
2023/07/29 01:51:00;;;;;;;;;;;;;;;22.85;44.54;99279.25;5053352;28;19909;-78
2023/07/29 01:53:26;;;;;;;;;;;;;;;22.78;43.17;99287.56;5053036;28;19959;-77
2023/07/29 01:55:51;;;;;;;;;;;;;;;22.74;43.11;99286.47;5052883;28;20306;-78
2023/07/29 01:58:16;;;;;;;;;;;;;;;22.71;44.85;99295.06;5052840;28;19946;-78
2023/07/29 02:00:41;;;;;;;;;;;;;;;22.65;43.58;99288.03;5053030;28;19946;-77
2023/07/29 02:03:07;;;;;;;;;;;;;;;22.58;44.26;99279.41;5052789;28;19908;-78
2023/07/29 02:05:32;;;;;;;;;;;;;;;22.49;44.60;99273.72;5052737;28;19992;-76
2023/07/29 02:07:57;;;;;;;;;;;;;;;22.48;44.73;99272.09;5052757;28;19975;-78
2023/07/29 02:10:23;;;;;;;;;;;;;;;22.54;43.65;99271.03;5034662;28;19924;-79
2023/07/29 02:12:48;;;;;;;;;;;;;;;22.55;44.57;99277.25;5034656;28;19908;-78
2023/07/29 02:15:13;;;;;;;;;;;;;;;22.59;43.13;99273.75;5052837;28;19920;-76
2023/07/29 02:17:41;;;;;;;;;;;;;;;22.64;43.90;99276.47;5034945;28;19999;-77
2023/07/29 02:20:07;;;;;;;;;;;;;;;22.64;43.86;99273.78;5052762;28;19996;-76
2023/07/29 02:22:32;;;;;;;;;;;;;;;22.64;43.40;99284.53;5034765;28;20374;-76
2023/07/29 02:24:58;;;;;;;;;;;;;;;22.61;45.57;99287.75;5052510;28;19909;-76
2023/07/29 02:27:26;;;;;;;;;;;;;;;22.54;45.66;99283.69;5052633;28;19916;-79
2023/07/29 02:29:51;;;;;;;;;;;;;;;22.53;43.09;99280.19;5052354;28;19909;-77
2023/07/29 02:32:17;;;;;;;;;;;;;;;22.47;44.25;99279.38;5052166;28;20374;-77
2023/07/29 02:34:42;;;;;;;;;;;;;;;22.48;45.39;99283.66;5034305;28;19909;-77
2023/07/29 02:37:08;;;;;;;;;;;;;;;22.59;44.67;99287.22;5052345;28;20301;-78
2023/07/29 02:39:33;;;;;;;;;;;;;;;22.54;44.51;99281.81;5052226;28;19999;-78
2023/07/29 02:41:58;;;;;;;;;;;;;;;22.52;45.39;99281.25;5052003;28;19920;-78
2023/07/29 02:44:24;;;;;;;;;;;;;;;22.48;43.93;99282.84;5051944;28;19909;-77
2023/07/29 02:46:49;;;;;;;;;;;;;;;22.43;42.48;99297.09;5034680;28;19946;-77
2023/07/29 02:49:14;;;;;;;;;;;;;;;22.28;46.25;99305.06;5034816;28;19944;-76
2023/07/29 02:51:39;;;;;;;;;;;;;;;22.18;43.55;99305.81;5052079;28;19955;-77
2023/07/29 02:54:05;;;;;;;;;;;;;;;22.10;43.33;99306.28;5052155;28;19909;-76
2023/07/29 02:56:33;;;;;;;;;;;;;;;22.03;44.90;99310.28;5052090;28;19912;-76
2023/07/29 02:58:58;;;;;;;;;;;;;;;21.94;45.44;99320.66;5051748;28;20376;-77
2023/07/29 03:01:25;;;;;;;;;;;;;;;21.91;46.96;99313.13;5051911;28;19916;-78
2023/07/29 03:03:50;;;;;;;;;;;;;;;21.81;44.75;99316.53;5051932;28;19923;-76
2023/07/29 03:06:15;;;;;;;;;;;;;;;21.78;46.68;99325.13;5051885;28;19909;-78
2023/07/29 03:08:41;;;;;;;;;;;;;;;21.76;45.73;99331.81;5033962;28;19923;-78
2023/07/29 03:11:07;;;;;;;;;;;;;;;21.70;45.70;99335.53;5051734;28;19935;-78
2023/07/29 03:13:32;;;;;;;;;;;;;;;21.60;46.25;99330.88;5052143;28;19908;-77
2023/07/29 03:16:08;;;;;;;;;;;;;;;21.58;46.67;99330.31;5051830;28;20000;-77
2023/07/29 03:18:33;;;;;;;;;;;;;;;21.58;44.26;99330.31;5051947;28;19909;-79
2023/07/29 03:20:59;;;;;;;;;;;;;;;21.53;47.64;99328.34;5052153;28;19913;-77
2023/07/29 03:23:24;;;;;;;;;;;;;;;21.52;44.16;99332.09;5058392;28;20366;-78
2023/07/29 03:25:51;;;;;;;;;;;;;;;21.48;45.97;99333.69;5058455;28;19977;-77
2023/07/29 03:28:16;;;;;;;;;;;;;;;21.47;44.76;99333.94;5040469;28;19916;-76
2023/07/29 03:30:41;;;;;;;;;;;;;;;21.46;44.66;99333.13;5058253;28;19909;-78
2023/07/29 03:33:07;;;;;;;;;;;;;;;21.46;46.63;99325.06;5058281;28;19909;-78
2023/07/29 03:35:32;;;;;;;;;;;;;;;21.46;46.53;99325.06;5058245;28;19913;-78
2023/07/29 03:37:57;;;;;;;;;;;;;;;21.46;44.93;99322.38;5058323;28;19913;-78
2023/07/29 03:40:23;;;;;;;;;;;;;;;21.49;44.71;99324.56;5058243;28;19909;-78
2023/07/29 03:42:48;;;;;;;;;;;;;;;21.49;45.65;99319.19;5058112;28;19912;-78
2023/07/29 03:45:13;;;;;;;;;;;;;;;21.48;46.38;99327.50;5040223;28;20381;-78
2023/07/29 03:47:39;;;;;;;;;;;;;;;21.48;45.45;99330.19;5057981;28;19967;-78
2023/07/29 03:50:04;;;;;;;;;;;;;;;21.49;45.84;99327.25;5059033;28;19908;-78
2023/07/29 03:52:29;;;;;;;;;;;;;;;21.48;46.34;99331.00;5058119;28;19913;-78
2023/07/29 03:54:55;;;;;;;;;;;;;;;21.56;47.09;99330.56;5057986;28;19999;-78
2023/07/29 03:57:21;;;;;;;;;;;;;;;21.64;45.49;99336.53;5057943;28;19916;-78
2023/07/29 03:59:46;;;;;;;;;;;;;;;21.68;46.42;99349.22;5057534;28;20522;-78
2023/07/29 04:02:11;;;;;;;;;;;;;;;21.66;46.98;99353.22;5039939;28;19908;-78
2023/07/29 04:04:36;;;;;;;;;;;;;;;21.69;45.25;99360.78;5057946;28;19915;-77
2023/07/29 04:07:03;;;;;;;;;;;;;;;21.71;43.99;99356.75;5058102;28;19928;-79
2023/07/29 04:09:28;;;;;;;;;;;;;;;21.63;46.04;99361.78;5057842;28;19912;-77
2023/07/29 04:11:53;;;;;;;;;;;;;;;21.68;46.27;99361.84;5039859;28;20352;-78
2023/07/29 04:14:19;;;;;;;;;;;;;;;21.73;45.46;99360.00;5057819;28;19908;-77
2023/07/29 04:16:45;;;;;;;;;;;;;;;21.75;47.18;99359.75;5057908;28;19912;-77
2023/07/29 04:19:10;;;;;;;;;;;;;;;21.82;44.99;99366.53;5058176;28;20373;-78
2023/07/29 04:21:35;;;;;;;;;;;;;;;21.84;45.14;99359.03;5057957;28;19915;-79
2023/07/29 04:24:01;;;;;;;;;;;;;;;21.87;46.05;99369.25;5039921;28;19908;-78
2023/07/29 04:26:26;;;;;;;;;;;;;;;21.85;47.26;99365.22;5039821;28;19909;-78
2023/07/29 04:28:51;;;;;;;;;;;;;;;21.86;45.38;99367.66;5057594;28;20385;-77
2023/07/29 04:31:16;;;;;;;;;;;;;;;21.96;44.97;99369.59;5057681;28;19931;-78
2023/07/29 04:33:42;;;;;;;;;;;;;;;22.05;44.59;99368.09;5054739;28;19909;-78
2023/07/29 04:36:07;;;;;;;;;;;;;;;22.08;44.95;99372.16;5054653;28;20299;-78
2023/07/29 04:38:33;;;;;;;;;;;;;;;22.14;45.60;99366.56;5054584;28;19908;-78
2023/07/29 04:41:01;;;;;;;;;;;;;;;22.18;45.16;99370.34;5054745;28;19917;-78
2023/07/29 04:43:28;;;;;;;;;;;;;;;22.25;45.49;99380.06;5054542;28;19928;-78
2023/07/29 04:45:53;;;;;;;;;;;;;;;22.26;45.18;99369.06;5054640;28;19916;-77
2023/07/29 04:48:18;;;;;;;;;;;;;;;22.30;45.83;99380.13;5054373;28;19916;-77
2023/07/29 04:50:43;;;;;;;;;;;;;;;22.36;45.56;99379.09;5054397;28;19915;-76
2023/07/29 04:53:09;;;;;;;;;;;;;;;22.40;45.54;99377.50;5036435;28;19909;-78
2023/07/29 04:55:34;;;;;;;;;;;;;;;22.45;43.89;99372.16;5054281;28;19913;-77
2023/07/29 04:58:00;;;;;;;;;;;;;;;22.51;44.84;99376.50;5054129;28;19916;-77
2023/07/29 05:00:25;;;;;;;;;;;;;;;22.62;44.08;99382.75;5054129;28;19920;-77
2023/07/29 05:02:51;;;;;;;;;;;;;;;22.74;44.34;99375.28;5054099;28;19969;-76
2023/07/29 05:05:16;;;;;;;;;;;;;;;;;;5053987;28;19913;-76
2023/07/29 05:07:41;;;;;;;;;;;;;;;22.90;44.09;99385.09;5054273;28;20046;-78
2023/07/29 05:10:07;;;;;;;;;;;;;;;22.95;44.22;99392.38;5054152;28;19916;-78
2023/07/29 05:12:32;;;;;;;;;;;;;;;22.96;45.18;99391.31;5053947;28;19901;-77
2023/07/29 05:14:58;;;;;;;;;;;;;;;22.97;44.88;99391.03;5035733;28;19908;-79
2023/07/29 05:17:23;;;;;;;;;;;;;;;22.99;44.42;99390.78;5053875;28;19908;-78
2023/07/29 05:19:48;;;;;;;;;;;;;;;23.05;44.46;99389.75;5035761;28;19920;-76
2023/07/29 05:22:14;;;;;;;;;;;;;;;23.04;44.37;99388.94;5053733;28;19908;-78
2023/07/29 05:24:39;;;;;;;;;;;;;;;23.05;45.28;99392.44;5053542;28;19970;-77
2023/07/29 05:27:05;;;;;;;;;;;;;;;23.05;44.10;99395.94;5035743;28;19908;-77
2023/07/29 05:29:30;;;;;;;;;;;;;;;23.10;44.71;99397.84;5053567;28;20278;-77
2023/07/29 05:31:56;;;;;;;;;;;;;;;23.18;43.08;99391.97;5035778;28;19916;-78
2023/07/29 05:34:22;;;;;;;;;;;;;;;23.21;44.46;99393.31;5035642;28;19913;-77
2023/07/29 05:36:47;;;;;;;;;;;;;;;23.21;43.65;99391.44;5053391;28;19917;-77
2023/07/29 05:39:13;;;;;;;;;;;;;;;23.24;44.78;99392.78;5053527;28;19952;-77
2023/07/29 05:41:38;;;;;;;;;;;;;;;23.27;44.05;99392.25;5053245;28;20381;-77
2023/07/29 05:44:04;;;;;;;;;;;;;;;23.30;44.40;99399.81;5053249;28;19966;-78
2023/07/29 05:46:29;;;;;;;;;;;;;;;23.35;43.37;99397.94;5035550;28;20416;-77
2023/07/29 05:48:54;;;;;;;;;;;;;;;23.42;44.55;99395.81;5053287;28;19908;-78
2023/07/29 05:51:19;;;;;;;;;;;;;;;23.46;44.71;99401.47;5035791;28;20002;-77
2023/07/29 05:53:45;;;;;;;;;;;;;;;23.49;43.88;99400.94;5052898;28;19971;-79
2023/07/29 05:56:10;;;;;;;;;;;;;;;23.53;44.30;99398.53;5053147;28;19920;-78
2023/07/29 05:58:35;;;;;;;;;;;;;;;23.58;44.38;99401.25;5052837;28;19920;-78
2023/07/29 06:01:01;;;;;;;;;;;;;;;23.69;43.53;99400.19;5052791;28;20298;-78
2023/07/29 06:03:26;;;;;;;;;;;;;;;23.73;43.67;99396.69;5052856;28;19908;-78
2023/07/29 06:05:52;;;;;;;;;;;;;;;23.87;43.77;99398.91;5052692;28;19916;-79
2023/07/29 06:08:17;;;;;;;;;;;;;;;23.96;43.05;99389.19;5052637;28;19904;-78
2023/07/29 06:10:42;;;;;;;;;;;;;;;24.07;42.75;99393.50;5034675;28;19912;-78
2023/07/29 06:13:08;;;;;;;;;;;;;;;24.15;42.83;99392.97;5052681;28;20360;-78
2023/07/29 06:15:33;;;;;;;;;;;;;;;24.24;43.18;99390.53;5052667;28;19920;-78
2023/07/29 06:17:58;;;;;;;;;;;;;;;24.32;42.71;99398.13;5052814;28;19961;-78
2023/07/29 06:20:24;;;;;;;;;;;;;;;24.38;43.06;99388.94;5052566;28;19908;-77
2023/07/29 06:22:49;;;;;;;;;;;;;;;24.46;43.07;99385.69;5052435;28;20010;-76
2023/07/29 06:25:14;;;;;;;;;;;;;;;24.57;41.91;99389.19;5052376;28;19908;-76
2023/07/29 06:27:39;;;;;;;;;;;;;;;24.64;41.41;99395.94;5052490;28;19956;-76
2023/07/29 06:30:05;;;;;;;;;;;;;;;24.71;40.75;99392.94;5052556;28;19916;-78
2023/07/29 06:32:31;;;;;;;;;;;;;;;24.80;40.40;99390.50;5052291;28;19908;-76
2023/07/29 06:34:56;;;;;;;;;;;;;;;24.87;39.68;99385.59;5052204;28;20296;-77
2023/07/29 06:37:22;;;;;;;;;;;;;;;24.91;39.63;99392.88;5052235;28;19909;-77
2023/07/29 06:39:47;;;;;;;;;;;;;;;24.99;39.92;99392.34;5052383;28;19909;-77
2023/07/29 06:42:12;;;;;;;;;;;;;;;25.06;40.04;99391.22;5034172;28;19938;-76
2023/07/29 06:44:38;;;;;;;;;;;;;;;25.14;40.06;99382.56;5051856;28;19915;-76
2023/07/29 06:47:03;;;;;;;;;;;;;;;25.22;39.67;99385.47;5052033;28;19908;-79
2023/07/29 06:49:28;;;;;;;;;;;;;;;25.29;39.70;99391.41;5053207;28;19913;-76
2023/07/29 06:51:54;;;;;;;;;;;;;;;25.35;39.46;99384.09;5051927;28;19909;-78
2023/07/29 06:54:23;;;;;;;;;;;;;;;25.42;39.04;99389.19;5051831;28;19983;-78
2023/07/29 06:56:48;;;;;;;;;;;;;;;25.52;39.19;99389.94;5051311;28;19913;-79
2023/07/29 06:59:14;;;;;;;;;;;;;;;25.60;38.97;99388.53;5051773;28;20050;-78
2023/07/29 07:01:39;;;;;;;;;;;;;;;25.68;38.31;99392.56;5051866;28;19916;-77
2023/07/29 07:04:04;;;;;;;;;;;;;;;25.75;37.96;99388.47;5051939;28;19991;-78
2023/07/29 07:06:29;;;;;;;;;;;;;;;25.80;37.40;99385.72;5051898;28;19970;-77
2023/07/29 07:08:55;;;;;;;;;;;;;;;25.84;37.41;99389.47;5051791;28;19909;-78
2023/07/29 07:11:20;;;;;;;;;;;;;;;25.91;37.46;99373.72;5051932;28;20391;-78
2023/07/29 07:13:45;;;;;;;;;;;;;;;26.01;37.56;99382.84;5051606;28;19967;-78
2023/07/29 07:16:11;;;;;;;;;;;;;;;26.11;37.88;99380.09;5051624;28;19970;-77
2023/07/29 07:18:36;;;;;;;;;;;;;;;26.19;37.55;99376.78;5051645;28;19909;-76
2023/07/29 07:21:01;;;;;;;;;;;;;;;26.25;37.40;99381.06;5051634;28;19988;-77
2023/07/29 07:23:26;;;;;;;;;;;;;;;26.23;37.38;99369.69;5051693;28;20308;-78
2023/07/29 07:25:52;;;;;;;;;;;;;;;26.29;37.60;99380.19;5051704;28;19974;-77
2023/07/29 07:28:17;;;;;;;;;;;;;;;26.40;37.68;99377.41;5051686;28;20310;-77
2023/07/29 07:30:42;;;;;;;;;;;;;;;26.46;37.74;99377.09;5051489;28;19944;-78
2023/07/29 07:33:08;;;;;;;;;;;;;;;26.57;37.07;99367.75;5051481;28;20373;-77
2023/07/29 07:35:33;;;;;;;;;;;;;;;26.68;37.40;99368.44;5033392;28;19912;-77
2023/07/29 07:38:01;;;;;;;;;;;;;;;26.74;36.75;99374.63;5051473;28;19909;-78
2023/07/29 07:40:27;;;;;;;;;;;;;;;26.78;36.56;99368.38;5051335;28;20373;-78
2023/07/29 07:42:52;;;;;;;;;;;;;;;26.78;36.51;99367.56;5051269;28;19908;-78
2023/07/29 07:45:17;;;;;;;;;;;;;;;26.80;36.28;99358.03;5051253;28;19915;-78
2023/07/29 07:47:43;;;;;;;;;;;;;;;26.86;36.16;99359.59;5033367;28;19912;-79
2023/07/29 07:50:08;;;;;;;;;;;;;;;26.95;36.22;99356.25;5051408;28;19913;-78
2023/07/29 07:52:33;;;;;;;;;;;;;;;26.97;36.15;99351.34;5051379;28;19995;-78
2023/07/29 07:54:59;;;;;;;;;;;;;;;27.01;36.22;99352.41;5051121;28;19978;-78
2023/07/29 07:57:24;;;;;;;;;;;;;;;27.07;36.76;99349.34;5051407;28;20408;-78
2023/07/29 07:59:50;;;;;;;;;;;;;;;27.14;36.41;99340.84;5033362;28;19917;-78
2023/07/29 08:02:15;;;;;;;;;;;;;;;27.26;36.21;99335.81;5051470;28;19944;-78
2023/07/29 08:04:41;;;;;;;;;;;;;;;27.41;35.88;99342.91;5033343;28;20416;-77
2023/07/29 08:07:06;;;;;;;;;;;;;;;27.50;36.21;99336.56;5051351;28;19915;-78
2023/07/29 08:09:31;;;;;;;;;;;;;;;27.64;35.45;99335.84;5036943;28;19960;-78
2023/07/29 08:11:57;;;;;;;;;;;;;;;27.74;34.87;99333.75;5036983;28;19912;-79
2023/07/29 08:14:22;;;;;;;;;;;;;;;27.79;33.98;99330.16;5054717;28;20374;-79
2023/07/29 08:16:47;;;;;;;;;;;;;;;27.82;33.79;99333.09;5036820;28;19963;-77
2023/07/29 08:19:13;;;;;;;;;;;;;;;27.95;35.84;99325.28;5037082;28;20003;-77
2023/07/29 08:21:38;;;;;;;;;;;;;;;28.13;34.38;99321.72;5055001;28;19908;-77
2023/07/29 08:24:03;;;;;;;;;;;;;;;28.25;33.83;99318.56;5055142;28;19916;-77
2023/07/29 08:26:29;;;;;;;;;;;;;;;28.37;33.62;99310.72;5055323;28;19931;-78
2023/07/29 08:28:54;;;;;;;;;;;;;;;28.46;33.66;99326.03;5054660;28;19947;-78
2023/07/29 08:31:19;;;;;;;;;;;;;;;28.56;33.64;99318.78;5054520;28;19912;-77
2023/07/29 08:33:45;;;;;;;;;;;;;;;28.62;32.56;99321.09;5054669;28;19999;-77
2023/07/29 08:36:10;;;;;;;;;;;;;;;28.68;32.61;99317.16;5054303;28;19916;-78
2023/07/29 08:38:35;;;;;;;;;;;;;;;28.84;33.15;99312.25;5054691;28;20305;-77
2023/07/29 08:41:03;;;;;;;;;;;;;;;28.98;33.64;99314.94;5054589;28;19912;-77
2023/07/29 08:43:32;;;;;;;;;;;;;;;29.14;31.91;99310.81;5054454;28;19915;-77
2023/07/29 08:45:58;;;;;;;;;;;;;;;29.26;32.27;99304.84;5054689;28;20003;-78
2023/07/29 08:48:28;;;;;;;;;;;;;;;29.41;32.09;99309.94;5054304;28;19955;-78
2023/07/29 08:50:53;;;;;;;;;;;;;;;29.45;31.36;99305.50;5054366;28;20000;-78
2023/07/29 08:53:19;;;;;;;;;;;;;;;29.58;31.34;99301.13;5054307;28;20385;-78
2023/07/29 08:55:44;;;;;;;;;;;;;;;29.67;31.22;99294.63;5054250;28;19966;-76
2023/07/29 08:58:10;;;;;;;;;;;;;;;29.82;31.49;99296.19;5054003;28;19999;-78
2023/07/29 09:00:36;;;;;;;;;;;;;;;29.96;32.11;99296.09;5053894;28;19912;-78
2023/07/29 09:03:06;;;;;;;;;;;;;;;30.13;29.93;99290.78;5054005;28;19909;-77
2023/07/29 09:05:32;;;;;;;;;;;;;;;30.30;31.02;99282.69;5054197;28;19908;-77
2023/07/29 09:07:57;;;;;;;;;;;;;;;30.50;30.58;99280.53;5053864;28;19908;-78
2023/07/29 09:10:24;;;;;;;;;;;;;;;30.61;30.13;99281.88;5053849;28;20062;-78
2023/07/29 09:12:50;;;;;;;;;;;;;;;30.75;29.85;99287.19;5054246;28;20341;-76
2023/07/29 09:15:26;;;;;;;;;;;;;;;30.94;29.35;99277.63;5054016;28;19931;-76
2023/07/29 09:17:51;;;;;;;;;;;;;;;31.06;27.40;99276.19;5053975;28;19990;-77
2023/07/29 09:20:23;;;;;;;;;;;;;;;31.18;29.00;99271.72;5053290;28;19955;-78
2023/07/29 09:22:48;;;;;;;;;;;;;;;31.29;29.35;99261.31;5053682;28;19909;-76
2023/07/29 09:25:16;;;;;;;;;;;;;;;31.47;28.98;99268.34;5053806;28;19908;-77
2023/07/29 09:27:41;;;;;;;;;;;;;;;31.64;28.47;99261.28;5053583;28;20021;-79
2023/07/29 09:30:15;;;;;;;;;;;;;;;31.88;28.34;99261.56;5035660;28;20385;-78
2023/07/29 09:32:41;;;;;;;;;;;;;;;32.07;28.35;99253.81;5053437;28;19912;-77
2023/07/29 09:35:10;;;;;;;;;;;;;;;32.27;27.86;99252.31;5053227;28;19909;-76
2023/07/29 09:37:35;;;;;;;;;;;;;;;32.53;28.01;99246.69;5053407;28;19944;-77
2023/07/29 09:40:00;;;;;;;;;;;;;;;32.63;25.76;99246.31;5053478;28;19967;-79
2023/07/29 09:42:26;;;;;;;;;;;;;;;32.75;26.85;99245.63;5035277;28;19909;-78
2023/07/29 09:44:51;;;;;;;;;;;;;;;32.81;27.02;99244.31;5053119;28;19909;-78
2023/07/29 09:47:23;;;;;;;;;;;;;;;32.99;26.58;99240.31;5035178;28;19916;-76
2023/07/29 09:49:49;;;;;;;;;;;;;;;33.22;25.91;99246.25;5035182;28;19912;-78
2023/07/29 09:52:22;;;;;;;;;;;;;;;33.48;26.36;99248.81;5035163;28;19931;-78
2023/07/29 09:54:47;;;;;;;;;;;;;;;33.55;25.96;99245.50;5051822;28;19966;-78
2023/07/29 09:57:13;;;;;;;;;;;;;;;33.58;24.62;99248.38;5035090;28;19948;-77
2023/07/29 09:59:39;;;;;;;;;;;;;;;33.68;24.50;99230.72;5035220;28;19936;-77
2023/07/29 10:02:04;;;;;;;;;;;;;;;33.62;24.95;99238.34;5053549;28;19909;-77
2023/07/29 10:04:29;;;;;;;;;;;;;;;33.67;23.64;99240.88;5036841;28;19920;-78
2023/07/29 10:06:56;;;;;;;;;;;;;;;33.85;25.75;99225.06;5061397;28;19916;-79
2023/07/29 10:09:22;;;;;;;;;;;;;;;34.08;24.35;99236.41;5058099;28;19915;-78
2023/07/29 10:11:49;;;;;;;;;;;;;;;34.30;24.03;99235.97;5053052;28;19916;-77
2023/07/29 10:14:15;;;;;;;;;;;;;;;34.45;23.64;99229.03;5053163;28;19908;-77
2023/07/29 10:16:41;;;;;;;;;;;;;;;34.59;23.84;99223.19;5053078;28;19920;-77
2023/07/29 10:19:07;;;;;;;;;;;;;;;34.53;23.02;99221.81;5053091;28;20334;-77
2023/07/29 10:21:33;;;;;;;;;;;;;;;34.66;23.27;99218.72;5052687;28;19958;-75
2023/07/29 10:24:01;;;;;;;;;;;;;;;34.85;23.02;99218.13;5034889;28;19966;-77
2023/07/29 10:26:28;;;;;;;;;;;;;;;35.09;22.09;99220.00;5034894;28;20385;-75
2023/07/29 10:28:55;;;;;;;;;;;;;;;35.23;21.70;99205.88;5052637;28;19995;-78
2023/07/29 10:31:22;;;;;;;;;;;;;;;35.29;23.26;99210.78;5051382;28;19916;-77
2023/07/29 10:33:48;;;;;;;;;;;;;;;35.50;22.96;99202.34;5052354;28;19951;-77
2023/07/29 10:36:14;;;;;;;;;;;;;;;35.75;23.33;99202.22;5034246;28;19913;-78
2023/07/29 10:38:40;;;;;;;;;;;;;;;35.71;23.00;99206.81;5052177;28;19912;-78
2023/07/29 10:41:05;;;;;;;;;;;;;;;35.79;22.19;99203.09;5052017;28;19909;-78
2023/07/29 10:43:35;;;;;;;;;;;;;;;35.93;21.84;99198.00;5052623;28;20361;-77
2023/07/29 10:46:20;;;;;;;;;;;;;;;36.12;21.42;99191.78;5052057;28;19909;-77
2023/07/29 10:48:51;;;;;;;;;;;;;;;36.24;21.83;99186.16;5052002;28;19987;-78
2023/07/29 10:51:25;;;;;;;;;;;;;;;36.42;20.73;99181.13;5051932;28;19909;-76
2023/07/29 10:54:17;;;;;;;;;;;;;;;36.47;20.23;99178.91;5051668;28;19908;-76
2023/07/29 10:56:46;;;;;;;;;;;;;;;36.41;21.47;99179.50;5048488;28;19913;-76
2023/07/29 10:59:11;;;;;;;;;;;;;;;36.55;20.71;99179.84;5051579;28;19921;-77
2023/07/29 11:01:38;;;;;;;;;;;;;;;36.71;21.52;99186.09;5051820;28;19913;-77
2023/07/29 11:04:25;;;;;;;;;;;;;;;36.89;20.50;99180.97;5051883;28;19909;-76
2023/07/29 11:07:10;;;;;;;;;;;;;;;36.96;19.71;99178.38;5051872;28;20356;-77
2023/07/29 11:09:39;;;;;;;;;;;;;;;37.24;20.19;99175.44;5051750;28;19907;-77
2023/07/29 11:12:05;;;;;;;;;;;;;;;37.38;19.73;99175.69;5052180;28;19948;-78
2023/07/29 11:14:30;;;;;;;;;;;;;;;37.48;20.15;99168.78;5051666;28;19944;-78
2023/07/29 11:16:56;;;;;;;;;;;;;;;37.58;20.61;99164.63;5051626;28;19912;-76
2023/07/29 11:19:21;;;;;;;;;;;;;;;37.59;19.52;99169.78;5051830;28;19908;-76
2023/07/29 11:21:47;;;;;;;;;;;;;;;37.73;19.84;99169.25;5051721;28;19909;-75
2023/07/29 11:24:16;;;;;;;;;;;;;;;37.64;18.24;99163.94;5051522;28;19913;-78
2023/07/29 11:26:46;;;;;;;;;;;;;;;37.46;20.42;99160.09;5051854;28;19909;-78
2023/07/29 11:29:11;;;;;;;;;;;;;;;37.67;19.79;99160.47;5051607;28;19967;-78
2023/07/29 11:31:40;;;;;;;;;;;;;;;37.81;19.93;99152.47;5051462;28;19913;-77
2023/07/29 11:34:06;;;;;;;;;;;;;;;38.00;20.32;99156.31;5051831;28;19916;-79
2023/07/29 11:36:32;;;;;;;;;;;;;;;38.14;18.19;99151.81;5051506;28;19992;-79
2023/07/29 11:38:57;;;;;;;;;;;;;;;38.28;18.55;99154.00;5051851;28;19964;-76
2023/07/29 11:41:23;;;;;;;;;;;;;;;38.24;18.82;99144.88;5051520;28;19919;-77
2023/07/29 11:43:48;;;;;;;;;;;;;;;38.13;17.87;99141.16;5054031;28;20443;-76
2023/07/29 11:46:13;;;;;;;;;;;;;;;37.92;17.46;99138.06;5055238;28;19909;-78
2023/07/29 11:48:39;;;;;;;;;;;;;;;38.13;18.97;99132.88;5055425;28;20454;-76
2023/07/29 11:51:04;;;;;;;;;;;;;;;38.21;18.60;99142.88;5055958;28;19909;-78
2023/07/29 11:53:30;;;;;;;;;;;;;;;38.27;18.72;99133.13;5055209;28;20356;-78
2023/07/29 11:55:56;;;;;;;;;;;;;;;38.50;18.46;99135.78;5055245;28;20317;-78
2023/07/29 11:58:21;;;;;;;;;;;;;;;38.59;17.63;99132.72;5055024;28;19924;-78
2023/07/29 12:00:46;;;;;;;;;;;;;;;38.59;17.48;99125.25;5055101;28;20349;-78
2023/07/29 12:03:12;;;;;;;;;;;;;;;38.66;18.79;99119.09;5055139;28;19915;-76
2023/07/29 12:05:37;;;;;;;;;;;;;;;38.76;19.46;99115.66;5055043;28;19909;-77
2023/07/29 12:08:03;;;;;;;;;;;;;;;38.57;18.93;99129.56;5054970;28;19908;-78
2023/07/29 12:10:28;;;;;;;;;;;;;;;38.66;18.53;99116.31;5037035;28;19984;-76
2023/07/29 12:12:54;;;;;;;;;;;;;;;38.79;18.36;99120.41;5055080;28;19995;-77
2023/07/29 12:15:26;;;;;;;;;;;;;;;38.94;17.69;99127.69;5055003;28;19966;-77
2023/07/29 12:17:58;;;;;;;;;;;;;;;39.09;17.97;99117.63;5037123;28;19982;-78
2023/07/29 12:20:24;;;;;;;;;;;;;;;39.05;17.89;99119.56;5054799;28;19909;-78
2023/07/29 12:22:53;;;;;;;;;;;;;;;39.13;18.89;99123.19;5054791;28;20407;-78
2023/07/29 12:25:19;;;;;;;;;;;;;;;38.80;18.03;99118.47;5054769;28;20384;-76
2023/07/29 12:27:44;;;;;;;;;;;;;;;38.88;17.60;99101.59;5054645;28;19916;-76
2023/07/29 12:30:10;;;;;;;;;;;;;;;39.00;17.30;99101.34;5054535;28;20369;-77
2023/07/29 12:32:43;;;;;;;;;;;;;;;39.11;18.38;99097.91;5054421;28;19909;-78
2023/07/29 12:35:09;;;;;;;;;;;;;;;39.20;17.96;99101.16;5054334;28;19998;-78
2023/07/29 12:37:34;;;;;;;;;;;;;;;39.26;17.98;99103.19;5054671;28;19970;-78
2023/07/29 12:40:00;;;;;;;;;;;;;;;39.21;16.75;99095.25;5054458;28;19940;-77
2023/07/29 12:42:25;;;;;;;;;;;;;;;39.17;17.61;99093.63;5054493;28;19940;-78